Time;durP1;ratioP1;P1;durP2;ratioP2;P2;SDS_P1;SDS_P2;PMS_P1;PMS_P2;Temp;Humidity;BMP_temperature;BMP_pressure;BME280_temperature;BME280_humidity;BME280_pressure;Samples;Min_cycle;Max_cycle;Signal;HPM_P1;HPM_P2
2023/08/26 00:00:45;;;;;;;8.05;6.38;;;20.90;99.90;;;;;;5079586;28;20024;-49
2023/08/26 00:03:31;;;;;;;8.10;5.80;;;20.90;99.90;;;;;;5102860;28;20028;-46
2023/08/26 00:06:17;;;;;;;8.55;5.93;;;20.90;99.90;;;;;;5093783;28;20484;-51
2023/08/26 00:09:03;;;;;;;6.03;5.38;;;20.90;99.90;;;;;;5102580;28;20048;-49
2023/08/26 00:11:49;;;;;;;6.70;5.30;;;21.00;99.90;;;;;;5095585;28;20097;-51
2023/08/26 00:14:35;;;;;;;12.23;7.43;;;21.00;99.90;;;;;;5092178;28;20035;-46
2023/08/26 00:17:21;;;;;;;8.23;7.13;;;21.00;99.90;;;;;;5091009;28;20530;-48
2023/08/26 00:20:09;;;;;;;8.20;6.28;;;20.90;99.90;;;;;;5092542;28;20024;-45
2023/08/26 00:22:55;;;;;;;12.93;8.40;;;20.80;99.90;;;;;;5091322;28;20035;-50
2023/08/26 00:25:41;;;;;;;9.07;7.53;;;20.70;99.90;;;;;;5093924;28;20032;-48
2023/08/26 00:28:26;;;;;;;8.30;7.25;;;20.70;99.90;;;;;;5081429;28;20063;-49
2023/08/26 00:31:13;;;;;;;9.60;7.10;;;20.60;99.90;;;;;;5088806;28;20063;-51
2023/08/26 00:34:02;;;;;;;10.73;7.03;;;20.60;99.90;;;;;;5109694;28;20491;-45
2023/08/26 00:36:48;;;;;;;10.82;7.80;;;20.60;99.90;;;;;;5086448;28;20035;-47
2023/08/26 00:39:34;;;;;;;8.95;7.43;;;20.60;99.90;;;;;;5086113;28;20031;-46
2023/08/26 00:42:20;;;;;;;8.75;6.60;;;20.60;99.90;;;;;;5106939;28;20024;-47
2023/08/26 00:45:06;;;;;;;8.27;7.38;;;20.70;99.90;;;;;;5108966;28;20031;-51
2023/08/26 00:47:52;;;;;;;9.85;7.78;;;20.60;99.90;;;;;;5101340;28;20054;-48
2023/08/26 00:50:39;;;;;;;11.02;7.07;;;20.60;99.90;;;;;;5096882;28;20036;-45
2023/08/26 00:53:25;;;;;;;10.77;7.82;;;20.60;99.90;;;;;;5102051;28;20073;-45
2023/08/26 00:56:12;;;;;;;8.63;7.63;;;20.60;99.90;;;;;;5109437;28;20128;-47
2023/08/26 00:58:58;;;;;;;10.48;7.50;;;20.60;99.90;;;;;;5100771;28;20039;-49
2023/08/26 01:01:45;;;;;;;7.80;7.00;;;20.60;99.90;;;;;;5099456;28;20127;-50
2023/08/26 01:04:32;;;;;;;10.68;7.05;;;20.50;99.90;;;;;;5084847;28;20032;-49
2023/08/26 01:07:18;;;;;;;11.85;7.95;;;20.50;99.90;;;;;;5094368;28;20105;-50
2023/08/26 01:10:05;;;;;;;10.35;8.00;;;20.60;99.90;;;;;;5090541;28;20032;-48
2023/08/26 01:13:04;;;;;;;11.27;8.75;;;20.60;99.90;;;;;;5087686;28;20024;-47
2023/08/26 01:15:51;;;;;;;10.32;9.07;;;20.60;99.90;;;;;;5083928;28;20028;-46
2023/08/26 01:18:38;;;;;;;11.75;7.88;;;20.60;99.90;;;;;;5081576;28;20020;-46
2023/08/26 01:21:34;;;;;;;10.90;8.05;;;20.60;99.90;;;;;;5084351;28;20024;-46
2023/08/26 01:24:20;;;;;;;10.48;8.07;;;20.60;99.90;;;;;;5083490;28;20021;-45
2023/08/26 01:27:07;;;;;;;9.98;8.48;;;20.60;99.90;;;;;;5083665;28;20485;-48
2023/08/26 01:29:54;;;;;;;9.55;8.45;;;20.70;99.90;;;;;;5082505;28;20442;-49
2023/08/26 01:32:54;;;;;;;9.95;7.38;;;20.70;99.90;;;;;;5084354;28;20027;-49
2023/08/26 01:35:43;;;;;;;8.93;8.02;;;20.80;99.90;;;;;;5074172;28;20484;-51
2023/08/26 01:38:29;;;;;;;10.05;8.02;;;20.80;99.90;;;;;;5078628;28;20032;-52
2023/08/26 01:41:19;;;;;;;8.93;7.15;;;20.80;99.90;;;;;;5086347;28;20493;-51
2023/08/26 01:44:05;;;;;;;10.18;8.70;;;20.80;99.90;;;;;;5085085;28;20428;-45
2023/08/26 01:46:53;;;;;;;10.13;7.72;;;20.80;99.90;;;;;;5086947;28;20111;-55
2023/08/26 01:49:39;;;;;;;9.07;8.18;;;20.80;99.90;;;;;;5086265;28;20071;-52
2023/08/26 01:52:25;;;;;;;11.23;8.75;;;20.90;99.90;;;;;;5091564;28;20039;-54
2023/08/26 01:55:12;;;;;;;12.02;8.95;;;20.90;99.90;;;;;;5092663;28;20125;-52
2023/08/26 01:57:58;;;;;;;10.07;8.77;;;20.90;99.90;;;;;;5092734;28;20040;-53
2023/08/26 02:00:43;;;;;;;12.18;9.20;;;20.90;99.90;;;;;;5087971;28;20111;-50
2023/08/26 02:03:29;;;;;;;13.38;9.70;;;21.00;99.90;;;;;;5091949;28;20072;-56
2023/08/26 02:06:15;;;;;;;12.75;9.52;;;21.00;99.90;;;;;;5091906;28;20028;-49
2023/08/26 02:09:01;;;;;;;10.52;9.23;;;21.10;99.90;;;;;;5077775;28;20032;-48
2023/08/26 02:11:47;;;;;;;12.32;9.20;;;21.10;99.90;;;;;;5091106;28;20456;-55
2023/08/26 02:14:33;;;;;;;11.25;9.73;;;21.10;99.90;;;;;;5072503;28;20040;-57
2023/08/26 02:17:19;;;;;;;8.60;7.50;;;21.10;99.90;;;;;;5072379;28;20028;-57
2023/08/26 02:20:07;;;;;;;9.95;7.55;;;21.20;99.90;;;;;;5072669;28;20100;-56
2023/08/26 02:22:53;;;;;;;8.65;7.32;;;21.20;99.90;;;;;;5082582;28;20031;-56
2023/08/26 02:25:39;;;;;;;9.63;7.55;;;21.10;99.90;;;;;;5091452;28;20036;-55
2023/08/26 02:28:25;;;;;;;8.35;6.97;;;21.10;99.90;;;;;;5091933;28;20031;-54
2023/08/26 02:31:11;;;;;;;9.15;7.57;;;21.10;99.90;;;;;;5076608;28;20024;-53
2023/08/26 02:33:57;;;;;;;10.15;8.13;;;21.00;99.90;;;;;;5091959;28;20034;-52
2023/08/26 02:36:43;;;;;;;10.10;7.72;;;21.00;99.90;;;;;;5091554;28;20342;-53
2023/08/26 02:39:30;;;;;;;10.43;6.90;;;21.00;99.90;;;;;;5091432;28;20064;-52
2023/08/26 02:42:15;;;;;;;10.90;7.28;;;20.90;99.90;;;;;;5093201;28;20020;-54
2023/08/26 02:45:03;;;;;;;9.57;6.88;;;20.80;99.90;;;;;;5092755;28;20051;-51
2023/08/26 02:47:49;;;;;;;8.88;6.75;;;20.70;99.90;;;;;;5075250;28;20025;-50
2023/08/26 02:50:37;;;;;;;6.80;5.80;;;20.80;99.90;;;;;;5072155;28;20031;-52
2023/08/26 02:53:25;;;;;;;10.77;6.38;;;20.70;99.90;;;;;;5071654;28;20434;-55
2023/08/26 02:56:10;;;;;;;8.23;6.03;;;20.70;99.90;;;;;;5071619;28;20105;-54
2023/08/26 02:58:56;;;;;;;8.32;5.75;;;20.70;99.90;;;;;;5071993;28;20032;-50
2023/08/26 03:01:42;;;;;;;7.88;5.95;;;20.80;99.90;;;;;;5071435;28;20508;-50
2023/08/26 03:04:29;;;;;;;8.80;6.30;;;20.70;99.90;;;;;;5072141;28;20120;-51
2023/08/26 03:07:14;;;;;;;7.03;6.07;;;20.60;99.90;;;;;;5056130;28;20060;-49
2023/08/26 03:10:00;;;;;;;7.90;6.28;;;20.50;99.90;;;;;;5071977;28;20029;-54
2023/08/26 03:12:46;;;;;;;8.82;6.10;;;20.40;99.90;;;;;;5073576;28;20024;-54
2023/08/26 03:15:32;;;;;;;8.57;6.57;;;20.30;99.90;;;;;;5090372;28;20032;-56
2023/08/26 03:18:18;;;;;;;9.13;6.63;;;20.20;99.90;;;;;;5090542;28;20021;-57
2023/08/26 03:21:05;;;;;;;9.68;7.15;;;20.20;99.90;;;;;;5062615;28;20428;-57
2023/08/26 03:23:52;;;;;;;9.80;7.05;;;20.00;99.90;;;;;;5090671;28;20028;-51
2023/08/26 03:26:38;;;;;;;8.57;6.72;;;20.10;99.90;;;;;;5089819;28;20566;-46
2023/08/26 03:29:24;;;;;;;8.20;6.95;;;20.20;99.90;;;;;;5091334;28;20111;-47
2023/08/26 03:32:10;;;;;;;7.68;6.88;;;20.40;99.90;;;;;;5090325;28;20031;-48
2023/08/26 03:34:55;;;;;;;7.80;6.82;;;20.40;99.90;;;;;;5090455;28;20028;-45
2023/08/26 03:37:41;;;;;;;9.00;7.00;;;20.50;99.90;;;;;;5090975;28;20170;-50
2023/08/26 03:40:27;;;;;;;9.23;6.85;;;20.50;99.90;;;;;;5091213;28;20047;-48
2023/08/26 03:43:13;;;;;;;11.30;7.50;;;20.50;99.90;;;;;;5091319;28;20028;-48
2023/08/26 03:46:00;;;;;;;7.80;6.75;;;20.50;99.90;;;;;;5091474;28;20039;-52
2023/08/26 03:48:45;;;;;;;8.48;7.38;;;20.60;99.90;;;;;;5071318;28;20036;-49
2023/08/26 03:51:31;;;;;;;9.77;7.47;;;20.60;99.90;;;;;;5071552;28;20028;-52
2023/08/26 03:54:17;;;;;;;8.35;7.07;;;20.60;99.90;;;;;;5071654;28;20036;-48
2023/08/26 03:57:03;;;;;;;11.70;7.63;;;20.70;99.90;;;;;;5070788;28;20042;-50
2023/08/26 03:59:49;;;;;;;12.65;7.75;;;20.70;99.90;;;;;;5071875;28;20058;-48
2023/08/26 04:02:35;;;;;;;9.77;6.88;;;20.70;99.90;;;;;;5071931;28;20021;-51
2023/08/26 04:05:22;;;;;;;10.85;7.70;;;20.70;99.90;;;;;;5075005;28;20040;-45
2023/08/26 04:08:08;;;;;;;11.20;6.95;;;20.70;99.90;;;;;;5074047;28;20074;-45
2023/08/26 04:10:59;;;;;;;10.73;6.05;;;20.70;99.90;;;;;;5075422;28;20063;-49
2023/08/26 04:13:45;;;;;;;7.78;5.93;;;20.70;99.90;;;;;;5073751;28;20076;-49
2023/08/26 04:16:31;;;;;;;7.55;5.93;;;20.60;99.90;;;;;;5073494;28;20033;-49
2023/08/26 04:19:17;;;;;;;7.30;5.20;;;20.60;99.90;;;;;;5074947;28;20043;-50
2023/08/26 04:22:04;;;;;;;9.30;5.95;;;20.60;99.90;;;;;;5075359;28;20489;-45
2023/08/26 04:24:50;;;;;;;9.07;5.53;;;20.60;99.90;;;;;;5074591;28;20112;-50
2023/08/26 04:27:36;;;;;;;8.73;5.72;;;20.60;99.90;;;;;;5076220;28;20112;-53
2023/08/26 04:30:22;;;;;;;9.77;5.40;;;20.60;99.90;;;;;;5077518;28;20037;-50
2023/08/26 04:33:08;;;;;;;6.13;5.50;;;20.60;99.90;;;;;;5076104;28;20029;-47
2023/08/26 04:35:54;;;;;;;8.63;5.68;;;20.60;99.90;;;;;;5074524;28;20032;-51
2023/08/26 04:38:40;;;;;;;8.68;5.20;;;20.60;99.90;;;;;;5074343;28;20051;-48
2023/08/26 04:41:26;;;;;;;7.43;4.88;;;20.60;99.90;;;;;;5074662;28;20036;-49
2023/08/26 04:44:12;;;;;;;8.18;4.80;;;20.60;99.90;;;;;;5074014;28;20024;-51
2023/08/26 04:46:58;;;;;;;8.70;4.85;;;20.60;99.90;;;;;;5082506;28;20055;-50
2023/08/26 04:49:44;;;;;;;6.85;5.55;;;20.60;99.90;;;;;;5093974;28;20208;-49
2023/08/26 04:52:30;;;;;;;6.07;4.80;;;20.60;99.90;;;;;;5094194;28;20020;-49
2023/08/26 04:55:16;;;;;;;6.75;4.47;;;20.60;99.90;;;;;;5094526;28;20063;-47
2023/08/26 04:58:02;;;;;;;5.07;4.30;;;20.50;99.90;;;;;;5092805;28;20175;-50
2023/08/26 05:00:48;;;;;;;7.00;4.75;;;20.60;99.90;;;;;;5094013;28;20028;-47
2023/08/26 05:03:35;;;;;;;9.15;4.60;;;20.60;99.90;;;;;;5092891;28;20020;-54
2023/08/26 05:06:21;;;;;;;5.97;4.43;;;20.60;99.90;;;;;;5092900;28;20028;-54
2023/08/26 05:09:07;;;;;;;7.70;4.60;;;20.60;99.90;;;;;;5092963;28;20076;-55
2023/08/26 05:11:55;;;;;;;6.38;4.43;;;20.60;99.90;;;;;;5077928;28;20020;-53
2023/08/26 05:14:41;;;;;;;6.25;4.57;;;20.50;99.90;;;;;;5093076;28;20034;-56
2023/08/26 05:17:27;;;;;;;5.80;4.90;;;20.50;99.90;;;;;;5078793;28;20043;-53
2023/08/26 05:20:13;;;;;;;7.63;4.93;;;20.50;99.90;;;;;;5093997;28;20024;-49
2023/08/26 05:22:59;;;;;;;6.03;4.55;;;20.50;99.90;;;;;;5093740;28;20122;-49
2023/08/26 05:25:45;;;;;;;8.18;4.70;;;20.50;99.90;;;;;;5093793;28;20027;-53
2023/08/26 05:28:31;;;;;;;6.55;4.57;;;20.40;99.90;;;;;;5094037;28;20028;-50
2023/08/26 05:31:17;;;;;;;6.63;4.65;;;20.30;99.90;;;;;;5093821;28;20036;-52
2023/08/26 05:34:03;;;;;;;5.93;4.53;;;20.40;99.90;;;;;;5092798;28;20025;-49
2023/08/26 05:36:49;;;;;;;5.75;4.53;;;20.40;99.90;;;;;;5092010;28;20378;-50
2023/08/26 05:39:35;;;;;;;5.38;4.10;;;20.40;99.90;;;;;;5092395;28;20043;-55
2023/08/26 05:42:21;;;;;;;8.32;4.60;;;20.50;99.90;;;;;;5077609;28;20032;-49
2023/08/26 05:45:08;;;;;;;4.88;4.38;;;20.50;99.90;;;;;;5093630;28;20020;-49
2023/08/26 05:47:54;;;;;;;5.50;4.38;;;20.50;99.90;;;;;;5075953;28;20031;-50
2023/08/26 05:50:40;;;;;;;6.78;4.28;;;20.50;99.90;;;;;;5073940;28;20496;-49
2023/08/26 05:53:29;;;;;;;6.45;4.72;;;20.50;99.90;;;;;;5073136;28;20378;-46
2023/08/26 05:56:15;;;;;;;5.85;4.13;;;20.40;99.90;;;;;;5072900;28;20099;-46
2023/08/26 05:59:01;;;;;;;7.43;4.43;;;20.40;99.90;;;;;;5073393;28;20409;-48
2023/08/26 06:01:47;;;;;;;6.95;5.00;;;20.30;99.90;;;;;;5072931;28;20029;-51
2023/08/26 06:04:33;;;;;;;8.18;4.40;;;20.10;99.90;;;;;;5073604;28;20449;-49
2023/08/26 06:07:19;;;;;;;6.85;4.93;;;19.90;99.90;;;;;;5072528;28;20031;-51
2023/08/26 06:10:06;;;;;;;12.38;6.13;;;20.00;99.90;;;;;;5073023;28;20513;-52
2023/08/26 06:12:52;;;;;;;8.95;6.07;;;20.00;99.90;;;;;;5071558;28;20047;-52
2023/08/26 06:15:38;;;;;;;8.05;5.75;;;19.90;99.90;;;;;;5072833;28;20587;-54
2023/08/26 06:18:24;;;;;;;6.38;5.07;;;20.00;99.90;;;;;;5071137;28;20033;-53
2023/08/26 06:21:10;;;;;;;7.40;6.15;;;20.10;99.90;;;;;;5071696;28;20025;-55
2023/08/26 06:23:56;;;;;;;10.05;6.80;;;20.00;99.90;;;;;;5072271;28;20028;-54
2023/08/26 06:26:43;;;;;;;11.15;7.95;;;20.00;99.90;;;;;;5071736;28;20029;-53
2023/08/26 06:29:30;;;;;;;8.10;5.72;;;20.00;99.90;;;;;;5072247;28;20105;-51
2023/08/26 06:32:16;;;;;;;6.82;5.55;;;20.10;99.90;;;;;;5072481;28;20029;-54
2023/08/26 06:35:04;;;;;;;7.72;5.50;;;20.10;99.90;;;;;;5071750;28;20029;-53
2023/08/26 06:37:50;;;;;;;7.32;5.93;;;20.20;99.90;;;;;;5072068;28;21120;-51
2023/08/26 06:40:36;;;;;;;7.45;5.38;;;20.20;99.90;;;;;;5083179;28;20031;-54
2023/08/26 06:43:23;;;;;;;6.43;5.72;;;20.30;99.90;;;;;;5072752;28;20108;-56
2023/08/26 06:46:09;;;;;;;6.55;5.68;;;20.30;99.90;;;;;;5072411;28;20107;-55
2023/08/26 06:48:55;;;;;;;7.15;5.40;;;20.30;99.90;;;;;;5071093;28;20033;-53
2023/08/26 06:51:43;;;;;;;8.10;5.50;;;20.30;99.90;;;;;;5071521;28;20103;-50
2023/08/26 06:54:29;;;;;;;6.25;4.68;;;20.30;99.90;;;;;;5055934;28;20025;-53
2023/08/26 06:57:15;;;;;;;7.30;5.38;;;20.40;99.90;;;;;;5069844;28;20033;-55
2023/08/26 07:00:05;;;;;;;10.25;6.07;;;20.50;99.90;;;;;;5069266;28;20021;-51
2023/08/26 07:02:51;;;;;;;7.15;5.10;;;20.50;99.90;;;;;;5069821;28;20032;-49
2023/08/26 07:05:45;;;;;;;6.05;5.00;;;20.50;99.90;;;;;;5069821;28;20028;-50
2023/08/26 07:08:31;;;;;;;5.93;4.68;;;20.50;99.90;;;;;;5070038;28;20056;-49
2023/08/26 07:11:17;;;;;;;8.10;5.20;;;20.50;99.90;;;;;;5068748;28;20112;-46
2023/08/26 07:14:03;;;;;;;6.47;4.60;;;20.50;99.90;;;;;;5055502;28;20559;-49
2023/08/26 07:16:51;;;;;;;8.50;5.65;;;20.50;99.90;;;;;;5070232;28;20028;-52
2023/08/26 07:19:37;;;;;;;6.72;4.85;;;20.60;99.90;;;;;;5071606;28;20037;-48
2023/08/26 07:22:23;;;;;;;6.25;5.13;;;20.60;99.90;;;;;;5071356;28;20516;-52
2023/08/26 07:25:09;;;;;;;9.00;4.95;;;20.70;99.90;;;;;;5073455;28;20031;-50
2023/08/26 07:27:55;;;;;;;6.85;4.55;;;20.80;99.90;;;;;;5071863;28;20024;-47
2023/08/26 07:30:41;;;;;;;6.22;4.88;;;20.80;99.90;;;;;;5073363;28;20032;-44
2023/08/26 07:33:27;;;;;;;6.63;4.75;;;20.80;99.90;;;;;;5092517;28;20024;-47
2023/08/26 07:36:13;;;;;;;5.50;4.43;;;20.80;99.90;;;;;;5090814;28;20021;-47
2023/08/26 07:38:59;;;;;;;6.88;4.90;;;20.80;99.90;;;;;;5095827;28;20111;-45
2023/08/26 07:41:45;;;;;;;6.03;5.07;;;20.60;99.90;;;;;;5097387;28;20571;-47
2023/08/26 07:44:31;;;;;;;5.32;4.78;;;20.70;99.90;;;;;;5097412;28;20404;-47
2023/08/26 07:47:20;;;;;;;6.60;4.95;;;20.70;99.90;;;;;;5082068;28;20024;-44
2023/08/26 07:50:06;;;;;;;5.50;4.88;;;20.70;99.90;;;;;;5098288;28;20064;-44
2023/08/26 07:52:53;;;;;;;6.63;5.35;;;20.80;99.90;;;;;;5096827;28;20035;-42
2023/08/26 07:55:39;;;;;;;6.03;5.30;;;20.90;99.90;;;;;;5097326;28;20028;-44
2023/08/26 07:58:25;;;;;;;6.00;5.40;;;21.00;99.90;;;;;;5097262;28;20023;-51
2023/08/26 08:01:11;;;;;;;10.02;6.38;;;21.20;99.90;;;;;;5096696;28;20028;-49
2023/08/26 08:03:56;;;;;;;7.07;6.32;;;21.40;99.90;;;;;;5097617;28;20029;-43
2023/08/26 08:06:42;;;;;;;7.93;6.95;;;21.60;99.90;;;;;;5097133;28;20062;-44
2023/08/26 08:09:28;;;;;;;8.55;7.32;;;21.60;99.90;;;;;;5097237;28;20032;-44
2023/08/26 08:12:15;;;;;;;8.98;8.07;;;21.40;99.90;;;;;;5096808;28;20122;-43
2023/08/26 08:15:01;;;;;;;9.57;7.72;;;21.40;99.90;;;;;;5098313;28;20028;-45
2023/08/26 08:17:47;;;;;;;8.10;7.30;;;21.60;99.90;;;;;;5096975;28;20092;-44
2023/08/26 08:20:33;;;;;;;8.68;7.78;;;22.00;99.90;;;;;;5084018;28;20028;-45
2023/08/26 08:23:19;;;;;;;10.80;9.73;;;21.80;99.90;;;;;;5081509;28;20024;-44
2023/08/26 08:26:05;;;;;;;13.55;9.65;;;21.70;99.90;;;;;;5082101;28;20107;-48
2023/08/26 08:28:51;;;;;;;11.88;9.93;;;21.70;99.90;;;;;;5097464;28;20055;-44
2023/08/26 08:31:37;;;;;;;11.35;9.98;;;21.50;99.90;;;;;;5097555;28;20040;-49
2023/08/26 08:34:23;;;;;;;12.07;10.40;;;21.60;99.90;;;;;;5098116;28;20121;-44
2023/08/26 08:37:09;;;;;;;12.20;10.10;;;21.70;99.90;;;;;;5080768;28;20077;-48
2023/08/26 08:39:55;;;;;;;15.50;10.18;;;21.70;99.90;;;;;;5082360;28;20028;-45
2023/08/26 08:42:42;;;;;;;14.15;10.27;;;21.70;99.90;;;;;;5097859;28;20028;-45
2023/08/26 08:45:28;;;;;;;12.95;10.15;;;21.80;99.90;;;;;;5097588;28;20493;-49
2023/08/26 08:48:14;;;;;;;12.00;9.05;;;21.80;99.90;;;;;;5096520;28;20032;-50
2023/08/26 08:51:03;;;;;;;10.15;9.07;;;21.90;99.90;;;;;;5092995;28;20054;-49
2023/08/26 08:53:50;;;;;;;10.60;8.40;;;21.90;99.90;;;;;;5093751;28;20523;-52
2023/08/26 08:56:37;;;;;;;11.90;8.07;;;21.90;99.90;;;;;;5077839;28;20055;-47
2023/08/26 08:59:26;;;;;;;9.55;8.05;;;22.10;99.90;;;;;;5093180;28;20029;-52
2023/08/26 09:02:14;;;;;;;11.43;7.68;;;22.30;99.90;;;;;;5094427;28;20553;-52
2023/08/26 09:05:01;;;;;;;10.43;7.07;;;22.30;99.90;;;;;;5094126;28;20047;-46
2023/08/26 09:07:50;;;;;;;7.05;6.07;;;22.30;99.90;;;;;;5092993;28;20028;-45
2023/08/26 09:10:37;;;;;;;7.25;5.88;;;22.30;99.90;;;;;;5093665;28;20036;-43
2023/08/26 09:13:22;;;;;;;8.63;5.55;;;22.60;99.90;;;;;;5093245;28;20028;-47
2023/08/26 09:16:09;;;;;;;7.95;5.60;;;22.40;99.90;;;;;;5078693;28;20024;-45
2023/08/26 09:18:57;;;;;;;8.73;5.60;;;22.50;99.90;;;;;;5092009;28;20025;-54
2023/08/26 09:21:44;;;;;;;6.80;5.20;;;22.50;99.90;;;;;;5093356;28;20024;-43
2023/08/26 09:24:30;;;;;;;5.85;5.03;;;22.80;99.90;;;;;;5092796;28;20131;-46
2023/08/26 09:27:16;;;;;;;9.30;5.45;;;22.90;99.90;;;;;;5093079;28;20020;-46
2023/08/26 09:30:04;;;;;;;7.82;5.40;;;22.80;99.90;;;;;;5092970;28;20561;-45
2023/08/26 09:32:52;;;;;;;6.47;4.97;;;22.60;99.90;;;;;;5093360;28;20028;-50
2023/08/26 09:35:48;;;;;;;8.32;5.05;;;22.70;99.90;;;;;;5074357;28;20028;-50
2023/08/26 09:38:47;;;;;;;6.53;5.00;;;22.80;99.90;;;;;;5087387;28;20021;-47
2023/08/26 09:41:33;;;;;;;6.82;4.80;;;22.70;99.90;;;;;;5082591;28;20024;-49
2023/08/26 09:44:21;;;;;;;8.23;5.20;;;22.90;99.90;;;;;;5082509;28;20024;-55
2023/08/26 09:47:11;;;;;;;6.45;5.32;;;23.00;99.90;;;;;;5072708;28;20402;-50
2023/08/26 09:49:57;;;;;;;6.55;4.82;;;23.30;99.90;;;;;;5092327;28;20028;-54
2023/08/26 09:52:48;;;;;;;6.15;5.30;;;23.40;99.90;;;;;;5092859;28;20378;-53
2023/08/26 09:55:35;;;;;;;9.88;5.43;;;23.30;99.90;;;;;;5094211;28;20501;-50
2023/08/26 09:58:21;;;;;;;5.65;4.80;;;23.40;99.90;;;;;;5090023;28;20059;-49
2023/08/26 10:01:07;;;;;;;7.68;5.30;;;23.20;98.60;;;;;;5085439;28;20032;-47
2023/08/26 10:04:03;;;;;;;8.75;5.18;;;22.90;99.50;;;;;;5090175;28;20032;-44
2023/08/26 10:06:59;;;;;;;5.97;4.80;;;22.90;99.70;;;;;;5086851;28;20024;-46
2023/08/26 10:09:54;;;;;;;5.88;4.88;;;22.90;99.70;;;;;;5081939;28;20029;-49
2023/08/26 10:12:43;;;;;;;5.57;4.97;;;22.90;99.90;;;;;;5085125;28;20454;-51
2023/08/26 10:15:32;;;;;;;7.63;5.28;;;23.00;99.90;;;;;;5083611;28;20115;-51
2023/08/26 10:18:36;;;;;;;6.53;5.00;;;23.10;99.90;;;;;;5082139;28;20025;-54
2023/08/26 10:21:23;;;;;;;6.45;4.93;;;23.20;99.30;;;;;;5090672;28;20504;-51
2023/08/26 10:24:09;;;;;;;10.52;6.00;;;23.40;98.30;;;;;;5072941;28;20028;-50
2023/08/26 10:26:56;;;;;;;8.45;5.72;;;23.30;98.40;;;;;;5084276;28;20405;-49
2023/08/26 10:29:43;;;;;;;7.07;4.93;;;23.40;98.50;;;;;;5092262;28;20035;-52
2023/08/26 10:32:29;;;;;;;8.18;5.90;;;23.60;98.30;;;;;;5092976;28;20028;-49
2023/08/26 10:35:15;;;;;;;6.60;4.90;;;23.50;98.40;;;;;;5080745;28;20040;-50
2023/08/26 10:38:13;;;;;;;8.00;5.75;;;23.40;98.50;;;;;;5096092;28;20038;-47
2023/08/26 10:41:12;;;;;;;7.47;5.57;;;23.40;98.20;;;;;;5073125;28;20026;-49
2023/08/26 10:44:02;;;;;;;6.60;5.47;;;23.20;98.10;;;;;;5092825;28;20069;-50
2023/08/26 10:46:55;;;;;;;6.22;5.63;;;23.00;98.30;;;;;;5088163;28;20099;-47
2023/08/26 10:49:41;;;;;;;5.80;5.00;;;23.00;98.50;;;;;;5083077;28;20032;-50
2023/08/26 10:52:31;;;;;;;5.65;5.05;;;22.80;97.80;;;;;;5090172;28;20488;-46
2023/08/26 10:55:24;;;;;;;7.25;5.72;;;23.00;97.50;;;;;;5091754;28;20498;-50
2023/08/26 10:58:13;;;;;;;7.82;5.57;;;23.10;97.70;;;;;;5090919;28;20043;-46
2023/08/26 11:00:59;;;;;;;8.68;5.53;;;23.00;96.90;;;;;;5088342;28;20020;-46
2023/08/26 11:03:45;;;;;;;5.88;4.80;;;22.80;96.90;;;;;;5089297;28;20024;-48
2023/08/26 11:06:37;;;;;;;5.82;4.20;;;22.90;95.90;;;;;;5087442;28;20024;-45
2023/08/26 11:09:23;;;;;;;6.80;4.90;;;22.80;95.20;;;;;;5086460;28;20038;-47
2023/08/26 11:12:25;;;;;;;6.90;4.07;;;22.80;94.50;;;;;;5092920;28;20032;-48
2023/08/26 11:15:11;;;;;;;4.10;3.70;;;22.60;93.80;;;;;;5073083;28;20523;-50
2023/08/26 11:17:57;;;;;;;4.05;3.65;;;22.70;93.30;;;;;;5086730;28;20032;-47
2023/08/26 11:20:44;;;;;;;5.45;3.40;;;22.80;93.50;;;;;;5090347;28;20024;-51
2023/08/26 11:23:32;;;;;;;6.35;3.38;;;22.80;93.40;;;;;;5083627;28;20020;-48
2023/08/26 11:26:21;;;;;;;5.00;3.90;;;22.70;92.40;;;;;;5086381;28;20024;-50
2023/08/26 11:29:11;;;;;;;5.20;3.80;;;22.80;93.50;;;;;;5087310;28;20115;-50
2023/08/26 11:31:57;;;;;;;4.10;3.33;;;22.90;92.50;;;;;;5083481;28;20075;-53
2023/08/26 11:34:43;;;;;;;6.03;3.22;;;22.90;92.00;;;;;;5089474;28;20028;-47
2023/08/26 11:37:35;;;;;;;6.72;3.55;;;23.10;91.90;;;;;;5087478;28;20111;-48
2023/08/26 11:40:23;;;;;;;7.10;3.58;;;23.00;92.20;;;;;;5080436;28;20028;-50
2023/08/26 11:43:13;;;;;;;6.70;3.25;;;23.10;91.30;;;;;;5091394;28;20032;-49
2023/08/26 11:45:59;;;;;;;4.50;3.25;;;23.10;91.20;;;;;;5091263;28;20154;-50
2023/08/26 11:48:45;;;;;;;4.07;3.20;;;23.10;91.10;;;;;;5092269;28;20019;-47
2023/08/26 11:51:31;;;;;;;4.82;3.13;;;22.90;90.60;;;;;;5089845;28;20059;-49
2023/08/26 11:54:24;;;;;;;3.75;3.28;;;22.70;91.10;;;;;;5090634;28;20085;-46
2023/08/26 11:57:12;;;;;;;4.10;3.20;;;22.80;91.20;;;;;;5091379;28;20089;-46
2023/08/26 12:00:24;;;;;;;4.45;2.80;;;22.60;90.80;;;;;;5089723;28;20032;-51
2023/08/26 12:03:10;;;;;;;6.55;3.15;;;22.60;91.40;;;;;;5081114;28;20044;-48
2023/08/26 12:05:56;;;;;;;5.72;3.72;;;22.60;91.80;;;;;;5084025;28;20043;-51
2023/08/26 12:08:44;;;;;;;4.07;3.10;;;22.80;91.60;;;;;;5081283;28;20029;-51
2023/08/26 12:11:38;;;;;;;7.18;3.35;;;23.00;91.80;;;;;;5083431;28;20055;-51
2023/08/26 12:14:25;;;;;;;3.83;2.90;;;23.10;91.60;;;;;;5081284;28;20023;-52
2023/08/26 12:17:11;;;;;;;4.20;2.92;;;23.10;90.30;;;;;;5089850;28;20024;-53
2023/08/26 12:19:57;;;;;;;4.63;2.85;;;23.10;90.70;;;;;;5091978;28;20381;-51
2023/08/26 12:22:43;;;;;;;5.60;2.90;;;23.30;90.50;;;;;;5092390;28;20073;-46
2023/08/26 12:25:31;;;;;;;3.67;2.80;;;23.30;90.40;;;;;;5092868;28;20031;-49
2023/08/26 12:28:21;;;;;;;3.22;2.90;;;23.30;90.00;;;;;;5098674;28;20020;-54
2023/08/26 12:31:08;;;;;;;3.60;2.95;;;23.40;90.10;;;;;;5095247;28;20035;-51
2023/08/26 12:33:54;;;;;;;3.20;2.72;;;23.70;90.20;;;;;;5093497;28;20032;-49
2023/08/26 12:36:40;;;;;;;4.47;2.80;;;23.30;88.80;;;;;;5095850;28;20028;-47
2023/08/26 12:39:26;;;;;;;5.28;2.95;;;23.30;90.00;;;;;;5085075;28;20447;-45
2023/08/26 12:42:12;;;;;;;4.90;3.00;;;23.40;88.60;;;;;;5087775;28;20021;-47
2023/08/26 12:44:58;;;;;;;4.10;3.00;;;23.30;88.70;;;;;;5082120;28;20028;-49
2023/08/26 12:47:44;;;;;;;4.57;3.00;;;23.40;88.40;;;;;;5094289;28;20036;-47
2023/08/26 12:50:31;;;;;;;4.72;2.63;;;23.20;88.90;;;;;;5108592;28;20055;-46
2023/08/26 12:53:17;;;;;;;4.82;3.00;;;23.40;89.40;;;;;;5092567;28;20020;-51
2023/08/26 12:56:03;;;;;;;3.63;2.85;;;23.60;90.00;;;;;;5088978;28;20374;-46
2023/08/26 12:58:49;;;;;;;3.40;2.75;;;23.40;89.40;;;;;;5080850;28;20032;-45
2023/08/26 13:01:35;;;;;;;3.05;2.67;;;23.30;90.30;;;;;;5084435;28;20480;-48
2023/08/26 13:04:21;;;;;;;5.57;3.20;;;23.20;90.40;;;;;;5088312;28;20113;-50
2023/08/26 13:07:07;;;;;;;3.58;2.70;;;23.20;90.30;;;;;;5084126;28;20115;-47
2023/08/26 13:09:53;;;;;;;4.57;3.08;;;23.30;90.40;;;;;;5084445;28;20146;-51
2023/08/26 13:12:42;;;;;;;4.63;3.03;;;23.30;90.70;;;;;;5082917;28;20024;-50
2023/08/26 13:15:29;;;;;;;4.80;2.80;;;23.10;90.30;;;;;;5085665;28;20099;-51
2023/08/26 13:18:14;;;;;;;7.05;3.42;;;23.10;90.80;;;;;;5084305;28;20411;-48
2023/08/26 13:21:00;;;;;;;4.82;2.92;;;23.20;91.00;;;;;;5090487;28;20523;-51
2023/08/26 13:23:46;;;;;;;6.00;3.15;;;23.20;90.60;;;;;;5081368;28;20400;-51
2023/08/26 13:26:32;;;;;;;5.03;3.13;;;23.40;90.90;;;;;;5062831;28;20024;-45
2023/08/26 13:29:18;;;;;;;5.63;2.90;;;23.50;90.20;;;;;;5084778;28;20095;-50
2023/08/26 13:32:04;;;;;;;4.13;2.83;;;23.70;90.10;;;;;;5082554;28;20119;-47
2023/08/26 13:34:51;;;;;;;4.32;3.00;;;23.60;90.20;;;;;;5081497;28;20017;-46
2023/08/26 13:37:36;;;;;;;3.13;2.83;;;23.20;89.70;;;;;;5084121;28;20094;-50
2023/08/26 13:40:23;;;;;;;4.10;2.92;;;23.30;90.00;;;;;;5084248;28;20443;-50
2023/08/26 13:43:08;;;;;;;4.88;3.60;;;23.20;90.20;;;;;;5083150;28;20024;-51
2023/08/26 13:45:54;;;;;;;4.00;3.28;;;23.20;90.50;;;;;;5082146;28;20338;-45
2023/08/26 13:48:40;;;;;;;3.90;3.33;;;23.00;90.60;;;;;;5082141;28;20036;-50
2023/08/26 13:51:27;;;;;;;8.57;3.17;;;23.20;90.80;;;;;;5082136;28;20163;-52
2023/08/26 13:54:13;;;;;;;6.18;3.25;;;23.10;90.60;;;;;;5084744;28;20056;-50
2023/08/26 13:57:01;;;;;;;4.88;2.92;;;23.20;90.40;;;;;;5081491;28;20025;-49
2023/08/26 13:59:47;;;;;;;4.32;2.80;;;23.20;90.60;;;;;;5083146;28;20027;-50
2023/08/26 14:02:33;;;;;;;3.38;3.03;;;22.90;90.50;;;;;;5069255;28;20053;-48
2023/08/26 14:05:19;;;;;;;3.92;2.85;;;23.00;90.90;;;;;;5081457;28;20511;-51
2023/08/26 14:08:05;;;;;;;4.93;3.08;;;22.90;90.90;;;;;;5082001;28;20524;-47
2023/08/26 14:10:53;;;;;;;3.42;2.90;;;23.10;90.80;;;;;;5090579;28;20020;-51
2023/08/26 14:13:39;;;;;;;3.30;2.85;;;22.80;90.60;;;;;;5076733;28;20043;-51
2023/08/26 14:16:26;;;;;;;3.42;2.63;;;22.90;90.70;;;;;;5084701;28;20062;-48
2023/08/26 14:19:13;;;;;;;3.72;2.80;;;23.10;90.60;;;;;;5086514;28;20040;-49
2023/08/26 14:21:59;;;;;;;3.90;2.90;;;23.00;90.60;;;;;;5073052;28;20111;-49
2023/08/26 14:24:48;;;;;;;6.40;3.22;;;23.00;90.20;;;;;;5085931;28;20016;-50
2023/08/26 14:27:34;;;;;;;4.18;2.75;;;22.90;90.20;;;;;;5085739;28;20045;-47